createdAt,value
2018-07-10T00:02:48.505Z,10.67
2018-07-10T00:07:31.555Z,8.83
2018-07-10T00:10:29.265Z,4.13
2018-07-10T00:12:57.773Z,5.80
2018-07-10T00:15:26.208Z,6.17
2018-07-10T00:17:54.744Z,12.00
2018-07-10T00:20:23.288Z,3.10
2018-07-10T00:22:52.160Z,2.20
2018-07-10T00:25:20.700Z,2.27
2018-07-10T00:27:49.248Z,4.43
2018-07-10T00:30:17.811Z,6.83
2018-07-10T00:32:46.277Z,5.03
2018-07-10T00:35:14.851Z,6.63
2018-07-10T00:37:53.684Z,3.93
2018-07-10T00:40:22.200Z,5.73
2018-07-10T00:42:50.752Z,2.87
2018-07-10T00:45:19.324Z,8.67
2018-07-10T00:47:47.882Z,3.57
2018-07-10T00:50:16.607Z,5.07
2018-07-10T00:52:45.142Z,1.73
2018-07-10T00:55:13.751Z,4.60
2018-07-10T00:57:42.272Z,1.90
2018-07-10T01:00:13.822Z,4.30
2018-07-10T01:02:42.273Z,4.17
2018-07-10T01:05:10.733Z,4.93
2018-07-10T01:07:39.236Z,2.43
2018-07-10T01:10:07.673Z,3.47
2018-07-10T01:12:36.133Z,4.20
2018-07-10T01:15:04.692Z,4.07
2018-07-10T01:17:33.221Z,5.13
2018-07-10T01:20:01.825Z,6.57
2018-07-10T01:22:30.356Z,6.73
2018-07-10T01:24:58.892Z,3.23
2018-07-10T01:27:27.396Z,3.80
2018-07-10T01:29:55.952Z,3.93
2018-07-10T01:32:24.493Z,3.70
2018-07-10T01:34:53.003Z,4.97
2018-07-10T01:37:21.529Z,6.80
2018-07-10T01:39:50.000Z,5.10
2018-07-10T01:42:18.557Z,3.40
2018-07-10T01:44:47.090Z,3.33
2018-07-10T01:47:15.600Z,2.33
2018-07-10T01:49:44.080Z,5.00
2018-07-10T01:52:12.612Z,3.40
2018-07-10T01:54:41.145Z,2.83
2018-07-10T01:57:09.669Z,6.10
2018-07-10T01:59:37.874Z,5.13
2018-07-10T02:02:06.368Z,4.67
2018-07-10T02:04:34.876Z,3.53
2018-07-10T02:07:03.429Z,5.90
2018-07-10T02:09:34.825Z,5.50
2018-07-10T02:12:03.591Z,2.50
2018-07-10T02:14:32.132Z,2.57
2018-07-10T02:17:00.629Z,4.07
2018-07-10T02:19:29.265Z,4.20
2018-07-10T02:21:57.788Z,3.43
2018-07-10T02:24:26.908Z,3.27
2018-07-10T02:26:55.613Z,1.50
2018-07-10T02:29:24.116Z,4.40
2018-07-10T02:31:52.609Z,5.53
2018-07-10T02:34:21.136Z,6.80
2018-07-10T02:36:49.613Z,5.87
2018-07-10T02:39:18.757Z,4.33
2018-07-10T02:41:47.300Z,4.97
2018-07-10T02:44:15.784Z,4.00
2018-07-10T02:46:44.317Z,7.47
2018-07-10T02:49:16.993Z,4.30
2018-07-10T02:51:56.492Z,3.13
2018-07-10T02:54:27.515Z,2.70
2018-07-10T02:56:57.245Z,4.73
2018-07-10T02:59:31.745Z,4.17
2018-07-10T03:02:00.305Z,2.87
2018-07-10T03:04:29.020Z,4.00
2018-07-10T03:06:57.530Z,3.00
2018-07-10T03:09:26.069Z,4.30
2018-07-10T03:11:54.569Z,6.60
2018-07-10T03:14:23.572Z,3.33
2018-07-10T03:16:52.220Z,6.77
2018-07-10T03:19:21.938Z,4.17
2018-07-10T03:21:50.435Z,5.27
2018-07-10T03:24:18.950Z,6.83
2018-07-10T03:26:47.462Z,8.37
2018-07-10T03:29:15.993Z,5.33
2018-07-10T03:31:44.457Z,5.13
2018-07-10T03:34:12.957Z,6.60
2018-07-10T03:36:41.484Z,7.27
2018-07-10T03:39:10.221Z,5.47
2018-07-10T03:41:38.733Z,6.53
2018-07-10T03:44:07.287Z,6.67
2018-07-10T03:46:35.944Z,3.93
2018-07-10T03:49:04.529Z,6.13
2018-07-10T03:51:33.031Z,4.97
2018-07-10T03:54:01.588Z,5.33
2018-07-10T03:56:30.150Z,6.30
2018-07-10T03:58:59.790Z,5.20
2018-07-10T04:01:34.165Z,4.53
2018-07-10T04:04:02.689Z,4.67
2018-07-10T04:06:31.173Z,4.90
2018-07-10T04:09:01.584Z,3.70
2018-07-10T04:11:30.065Z,3.10
2018-07-10T04:13:58.852Z,4.00
2018-07-10T04:16:28.136Z,5.30
2018-07-10T04:18:57.453Z,10.87
2018-07-10T04:21:28.744Z,3.60
2018-07-10T04:24:10.461Z,5.10
2018-07-10T04:26:42.997Z,4.40
2018-07-10T04:29:16.984Z,7.37
2018-07-10T04:31:54.209Z,7.23
2018-07-10T04:34:23.017Z,3.67
2018-07-10T04:36:51.889Z,3.80
2018-07-10T04:39:20.436Z,4.57
2018-07-10T04:42:02.869Z,3.60
2018-07-10T04:44:33.433Z,11.30
2018-07-10T04:47:17.684Z,2.83
2018-07-10T04:50:21.376Z,6.43
2018-07-10T04:52:53.980Z,3.17
2018-07-10T04:55:22.567Z,2.23
2018-07-10T04:58:05.964Z,4.17
2018-07-10T05:01:07.639Z,4.90
2018-07-10T05:03:36.160Z,4.47
2018-07-10T05:06:06.132Z,4.90
2018-07-10T05:08:34.940Z,5.07
2018-07-10T05:11:03.663Z,2.87
2018-07-10T05:13:32.188Z,3.63
2018-07-10T05:16:03.289Z,3.33
2018-07-10T05:18:32.704Z,4.13
2018-07-10T05:21:05.101Z,4.00
2018-07-10T05:23:33.631Z,4.47
2018-07-10T05:26:02.144Z,3.83
2018-07-10T05:28:30.674Z,2.80
2018-07-10T05:31:00.844Z,3.43
2018-07-10T05:33:28.972Z,5.10
2018-07-10T05:35:57.573Z,4.93
2018-07-10T05:38:38.498Z,4.10
2018-07-10T05:41:07.648Z,5.80
2018-07-10T05:43:46.001Z,4.83
2018-07-10T05:46:15.009Z,5.30
2018-07-10T05:48:55.764Z,3.50
2018-07-10T05:51:25.864Z,3.20
2018-07-10T05:53:54.464Z,2.00
2018-07-10T05:56:22.945Z,5.17
2018-07-10T05:58:51.496Z,2.90
2018-07-10T06:01:19.973Z,2.97
2018-07-10T06:03:48.452Z,2.60
2018-07-10T06:06:17.003Z,3.13
2018-07-10T06:08:45.572Z,7.93
2018-07-10T06:11:14.117Z,2.23
2018-07-10T06:13:42.584Z,3.50
2018-07-10T06:16:11.215Z,5.00
2018-07-10T06:18:39.596Z,3.20
2018-07-10T06:21:08.101Z,5.60
2018-07-10T06:23:40.494Z,6.10
2018-07-10T06:26:09.192Z,5.87
2018-07-10T06:28:38.284Z,4.27
2018-07-10T06:31:11.560Z,2.20
2018-07-10T06:34:00.730Z,2.27
2018-07-10T06:36:30.950Z,2.93
2018-07-10T06:39:15.693Z,5.70
2018-07-10T06:42:00.216Z,4.13
2018-07-10T06:44:28.729Z,2.40
2018-07-10T06:47:00.800Z,5.73
2018-07-10T06:49:35.004Z,4.23
2018-07-10T06:52:16.162Z,2.60
2018-07-10T06:55:05.438Z,5.63
2018-07-10T06:57:36.222Z,3.50
2018-07-10T07:00:08.730Z,3.47
2018-07-10T07:02:37.865Z,2.57
2018-07-10T07:05:06.899Z,4.73
2018-07-10T07:07:36.468Z,2.93
2018-07-10T07:10:07.380Z,3.43
2018-07-10T07:12:37.303Z,3.23
2018-07-10T07:15:08.069Z,2.07
2018-07-10T07:17:37.473Z,4.27
2018-07-10T07:20:06.289Z,4.03
2018-07-10T07:22:35.029Z,4.27
2018-07-10T07:25:06.256Z,2.53
2018-07-10T07:27:34.777Z,3.03
2018-07-10T07:30:03.368Z,2.50
2018-07-10T07:32:32.101Z,2.93
2018-07-10T07:35:00.783Z,2.30
2018-07-10T07:37:29.571Z,3.90
2018-07-10T07:39:58.300Z,2.47
2018-07-10T07:42:27.484Z,2.33
2018-07-10T07:44:56.356Z,2.73
2018-07-10T07:47:27.888Z,2.00
2018-07-10T07:49:56.708Z,5.17
2018-07-10T07:52:27.752Z,4.20
2018-07-10T07:54:57.112Z,2.73
2018-07-10T07:57:26.157Z,0.77
2018-07-10T07:59:54.616Z,2.10
2018-07-10T08:02:23.905Z,3.10
2018-07-10T08:04:52.877Z,3.93
2018-07-10T08:07:22.501Z,3.43
2018-07-10T08:09:52.599Z,2.90
2018-07-10T08:12:21.468Z,1.93
2018-07-10T08:14:50.208Z,2.00
2018-07-10T08:17:18.760Z,1.77
2018-07-10T08:19:47.551Z,1.50
2018-07-10T08:22:16.056Z,1.90
2018-07-10T08:24:44.601Z,2.93
2018-07-10T08:27:13.112Z,2.60
2018-07-10T08:29:41.400Z,1.17
2018-07-10T08:32:09.594Z,3.77
2018-07-10T08:34:38.203Z,0.83
2018-07-10T08:37:06.738Z,2.93
2018-07-10T08:39:35.228Z,3.43
2018-07-10T08:42:05.353Z,5.97
2018-07-10T08:44:34.101Z,2.33
2018-07-10T08:47:02.674Z,4.00
2018-07-10T08:49:35.053Z,3.70
2018-07-10T08:52:03.589Z,2.40
2018-07-10T08:54:32.117Z,3.63
2018-07-10T08:57:01.757Z,2.90
2018-07-10T08:59:30.823Z,3.27
2018-07-10T09:01:59.339Z,4.00
2018-07-10T09:04:27.875Z,5.40
2018-07-10T09:06:56.349Z,5.90
2018-07-10T09:09:24.864Z,2.77
2018-07-10T09:11:52.964Z,2.77
2018-07-10T09:14:21.540Z,4.77
2018-07-10T09:16:50.092Z,1.53
2018-07-10T09:19:21.228Z,4.43
2018-07-10T09:22:09.057Z,1.70
2018-07-10T09:24:48.589Z,3.43
2018-07-10T09:27:19.608Z,3.07
2018-07-10T09:29:48.833Z,4.57
2018-07-10T09:32:50.116Z,3.43
2018-07-10T09:35:18.636Z,2.00
2018-07-10T09:37:47.174Z,4.27
2018-07-10T09:40:17.994Z,2.77
2018-07-10T09:42:55.340Z,4.40
2018-07-10T09:45:26.148Z,3.07
2018-07-10T09:47:54.772Z,2.73
2018-07-10T09:50:23.696Z,5.67
2018-07-10T09:52:52.449Z,2.17
2018-07-10T09:55:20.997Z,4.07
2018-07-10T09:57:49.512Z,5.10
2018-07-10T10:00:22.520Z,2.67
2018-07-10T10:02:51.610Z,7.27
2018-07-10T10:05:19.751Z,4.20
2018-07-10T10:07:48.286Z,3.53
2018-07-10T10:10:16.762Z,0.90
2018-07-10T10:12:45.584Z,3.03
2018-07-10T10:15:14.126Z,2.77
2018-07-10T10:17:42.671Z,2.73
2018-07-10T10:20:10.836Z,2.60
2018-07-10T10:22:40.257Z,2.17
2018-07-10T10:25:08.769Z,3.10
2018-07-10T10:27:37.373Z,2.73
2018-07-10T10:30:05.893Z,2.93
2018-07-10T10:32:34.389Z,4.43
2018-07-10T10:35:02.892Z,2.00
2018-07-10T10:37:31.437Z,2.87
2018-07-10T10:40:00.958Z,3.57
2018-07-10T10:42:29.489Z,4.13
2018-07-10T10:45:01.865Z,4.20
2018-07-10T10:47:31.365Z,4.63
2018-07-10T10:50:01.493Z,1.60
2018-07-10T10:52:30.006Z,5.30
2018-07-10T10:54:58.595Z,5.67
2018-07-10T10:57:30.224Z,2.53
2018-07-10T10:59:58.745Z,3.10
2018-07-10T11:02:27.308Z,4.13
2018-07-10T11:04:55.828Z,1.90
2018-07-10T11:07:24.362Z,5.73
2018-07-10T11:09:52.905Z,6.87
2018-07-10T11:12:21.616Z,4.67
2018-07-10T11:14:50.133Z,6.27
2018-07-10T11:17:33.093Z,4.07
2018-07-10T11:20:10.152Z,4.00
2018-07-10T11:22:47.012Z,4.60
2018-07-10T11:25:15.782Z,6.60
2018-07-10T11:27:52.262Z,5.57
2018-07-10T11:30:20.809Z,7.57
2018-07-10T11:32:49.273Z,4.57
2018-07-10T11:35:17.786Z,6.70
2018-07-10T11:37:46.316Z,3.03
2018-07-10T11:40:14.861Z,7.83
2018-07-10T11:42:43.704Z,6.83
2018-07-10T11:45:12.616Z,5.60
2018-07-10T11:47:41.284Z,4.13
2018-07-10T11:50:09.788Z,2.73
2018-07-10T11:52:38.656Z,5.37
2018-07-10T11:55:07.625Z,8.20
2018-07-10T11:57:36.153Z,6.40
2018-07-10T12:00:04.704Z,5.13
2018-07-10T12:02:40.771Z,3.10
2018-07-10T12:05:09.281Z,7.20
2018-07-10T12:07:38.653Z,6.50
2018-07-10T12:10:18.464Z,7.50
2018-07-10T12:12:48.105Z,8.33
2018-07-10T12:15:16.657Z,2.73
2018-07-10T12:17:47.496Z,6.90
2018-07-10T12:20:16.028Z,9.77
2018-07-10T12:22:44.577Z,6.43
2018-07-10T12:25:13.277Z,7.37
2018-07-10T12:27:41.813Z,3.47
2018-07-10T12:30:10.309Z,9.13
2018-07-10T12:32:40.020Z,9.20
2018-07-10T12:35:09.512Z,6.53
2018-07-10T12:37:40.568Z,8.47
2018-07-10T12:40:10.156Z,7.90
2018-07-10T12:42:40.085Z,5.03
2018-07-10T12:45:09.467Z,8.17
2018-07-10T12:47:37.973Z,7.50
2018-07-10T12:50:06.901Z,7.37
2018-07-10T12:52:35.453Z,9.43
2018-07-10T12:55:03.972Z,5.40
2018-07-10T12:57:37.700Z,9.70
2018-07-10T13:00:06.252Z,7.73
2018-07-10T13:02:36.688Z,7.93
2018-07-10T13:05:06.196Z,10.27
2018-07-10T13:07:34.788Z,8.17
2018-07-10T13:10:03.315Z,8.40
2018-07-10T13:12:32.182Z,7.77
2018-07-10T13:15:00.732Z,9.03
2018-07-10T13:17:29.568Z,9.30
2018-07-10T13:20:03.015Z,8.80
2018-07-10T13:22:31.576Z,9.20
2018-07-10T13:25:00.235Z,9.40
2018-07-10T13:27:29.663Z,9.60
2018-07-10T13:29:58.452Z,8.80
2018-07-10T13:32:31.666Z,10.27
2018-07-10T13:35:00.281Z,9.13
2018-07-10T13:37:29.698Z,8.97
2018-07-10T13:40:02.817Z,6.43
2018-07-10T13:42:48.386Z,7.60
2018-07-10T13:45:18.158Z,8.70
2018-07-10T13:47:46.726Z,9.23
2018-07-10T13:50:18.664Z,13.73
2018-07-10T13:52:47.240Z,5.40
2018-07-10T13:55:15.808Z,8.70
2018-07-10T13:58:47.745Z,6.10
2018-07-10T14:01:17.027Z,10.27
2018-07-10T14:03:45.852Z,6.07
2018-07-10T14:06:14.706Z,5.77
2018-07-10T14:08:43.445Z,5.27
2018-07-10T14:11:11.994Z,8.07
2018-07-10T14:13:40.879Z,6.77
2018-07-10T14:16:09.464Z,6.40
2018-07-10T14:18:38.182Z,8.33
2018-07-10T14:21:09.025Z,6.40
2018-07-10T14:23:38.090Z,6.23
2018-07-10T14:26:07.212Z,9.03
2018-07-10T14:28:36.253Z,6.10
2018-07-10T14:31:04.795Z,5.70
2018-07-10T14:33:33.719Z,6.90
2018-07-10T14:36:02.241Z,4.90
2018-07-10T14:38:31.526Z,7.50
2018-07-10T14:41:04.273Z,9.30
2018-07-10T14:43:37.645Z,6.47
2018-07-10T14:46:09.626Z,7.50
2018-07-10T14:48:43.917Z,9.33
2018-07-10T14:51:13.284Z,8.50
2018-07-10T14:53:41.991Z,5.73
2018-07-10T14:56:10.616Z,7.20
2018-07-10T14:58:39.148Z,7.07
2018-07-10T15:01:07.665Z,8.47
2018-07-10T15:03:36.201Z,7.43
2018-07-10T15:06:04.699Z,6.67
2018-07-10T15:08:33.229Z,8.50
2018-07-10T15:11:01.698Z,10.93
2018-07-10T15:13:35.312Z,10.47
2018-07-10T15:16:04.090Z,8.07
2018-07-10T15:18:37.967Z,7.60
2018-07-10T15:21:06.430Z,9.97
2018-07-10T15:23:35.044Z,15.97
2018-07-10T15:26:03.616Z,8.60
2018-07-10T15:28:32.365Z,8.40
2018-07-10T15:31:01.138Z,16.90
2018-07-10T15:33:29.735Z,15.73
2018-07-10T15:35:58.238Z,14.40
2018-07-10T15:38:26.896Z,13.37
2018-07-10T15:40:55.267Z,14.60
2018-07-10T15:43:24.645Z,14.10
2018-07-10T15:45:53.125Z,18.23
2018-07-10T15:48:21.652Z,14.73
2018-07-10T15:50:50.249Z,16.47
2018-07-10T15:53:18.896Z,16.73
2018-07-10T15:55:53.719Z,16.67
2018-07-10T15:58:24.339Z,19.07
2018-07-10T16:00:53.053Z,20.20
2018-07-10T16:06:20.019Z,24.60
2018-07-10T16:08:48.611Z,24.37
2018-07-10T16:11:17.201Z,32.10
2018-07-10T16:13:45.753Z,31.33
2018-07-10T16:16:15.773Z,22.93
2018-07-10T16:18:57.522Z,22.97
2018-07-10T16:21:32.019Z,22.03
2018-07-10T16:24:02.917Z,21.10
2018-07-10T16:29:33.311Z,20.33
2018-07-10T16:32:04.773Z,19.60
2018-07-10T16:34:33.402Z,20.80
2018-07-10T16:37:03.012Z,22.50
2018-07-10T16:39:31.651Z,18.47
2018-07-10T16:42:05.617Z,20.37
2018-07-10T16:44:35.560Z,19.10
2018-07-10T16:47:07.945Z,25.50
2018-07-10T16:49:44.198Z,19.13
2018-07-10T16:52:25.857Z,22.00
2018-07-10T16:54:54.537Z,25.17
2018-07-10T16:57:23.158Z,21.93
2018-07-10T16:59:53.873Z,22.17
2018-07-10T17:02:22.477Z,22.27
2018-07-10T17:04:58.764Z,20.13
2018-07-10T17:07:27.345Z,22.47
2018-07-10T17:09:55.958Z,21.20
2018-07-10T17:12:24.606Z,19.43
2018-07-10T17:14:56.649Z,23.43
2018-07-10T17:17:25.329Z,24.47
2018-07-10T17:19:54.492Z,24.40
2018-07-10T17:22:24.525Z,22.50
2018-07-10T17:24:54.405Z,25.90
2018-07-10T17:27:32.477Z,29.40
2018-07-10T17:30:03.354Z,22.60
2018-07-10T17:32:33.736Z,25.90
2018-07-10T17:35:03.138Z,26.60
2018-07-10T17:37:34.540Z,27.10
2018-07-10T17:40:05.144Z,27.77
2018-07-10T17:42:35.284Z,31.00
2018-07-10T17:45:04.249Z,26.90
2018-07-10T17:47:33.310Z,29.07
2018-07-10T17:50:02.210Z,36.83
2018-07-10T17:52:30.799Z,36.50
2018-07-10T17:54:59.421Z,30.10
2018-07-10T17:57:29.076Z,40.57
2018-07-10T17:59:59.224Z,35.90
2018-07-10T18:02:27.858Z,32.80
2018-07-10T18:04:56.469Z,31.43
2018-07-10T18:07:25.324Z,40.37
2018-07-10T18:09:53.959Z,39.83
2018-07-10T18:12:22.556Z,35.63
2018-07-10T18:14:54.309Z,27.63
2018-07-10T18:17:22.891Z,34.93
2018-07-10T18:19:51.473Z,35.77
2018-07-10T18:22:20.685Z,30.43
2018-07-10T18:24:50.724Z,29.17
2018-07-10T18:27:19.428Z,38.47
2018-07-10T18:29:49.329Z,28.20
2018-07-10T18:32:17.864Z,35.73
2018-07-10T18:34:46.498Z,27.63
2018-07-10T18:37:15.175Z,31.50
2018-07-10T18:39:47.476Z,31.53
2018-07-10T18:42:16.159Z,30.90
2018-07-10T18:44:45.031Z,31.33
2018-07-10T18:47:13.669Z,22.57
2018-07-10T18:49:50.673Z,26.57
2018-07-10T18:52:23.650Z,33.00
2018-07-10T18:54:52.453Z,24.57
2018-07-10T18:57:38.923Z,35.13
2018-07-10T19:00:07.987Z,29.33
2018-07-10T19:02:58.161Z,33.37
2018-07-10T19:05:26.883Z,24.77
2018-07-10T19:07:55.498Z,31.87
2018-07-10T19:10:24.184Z,28.10
2018-07-10T19:12:52.794Z,29.30
2018-07-10T19:15:21.469Z,27.60
2018-07-10T19:17:54.513Z,29.17
2018-07-10T19:20:23.234Z,31.03
2018-07-10T19:22:59.380Z,31.57
2018-07-10T19:25:28.038Z,32.20
2018-07-10T19:27:58.433Z,33.20
2018-07-10T19:30:32.007Z,27.47
2018-07-10T19:33:01.555Z,25.13
2018-07-10T19:35:29.984Z,30.90
2018-07-10T19:37:58.589Z,22.57
2018-07-10T19:40:28.156Z,28.57
2018-07-10T19:42:57.481Z,23.33
2018-07-10T19:45:26.193Z,24.57
2018-07-10T19:47:55.854Z,27.30
2018-07-10T19:50:29.125Z,26.50
2018-07-10T19:52:58.323Z,30.00
2018-07-10T19:55:28.309Z,23.10
2018-07-10T19:58:03.716Z,29.83
2018-07-10T20:00:38.220Z,27.27
2018-07-10T20:03:06.876Z,26.53
2018-07-10T20:05:36.563Z,26.37
2018-07-10T20:08:11.682Z,27.80
2018-07-10T20:10:51.922Z,23.07
2018-07-10T20:13:32.608Z,25.50
2018-07-10T20:16:08.068Z,22.60
2018-07-10T20:21:03.233Z,25.83
2018-07-10T20:24:37.814Z,24.53
2018-07-10T20:28:13.970Z,28.00
2018-07-10T20:31:20.166Z,23.80
2018-07-10T20:33:57.106Z,22.20
2018-07-10T20:36:33.098Z,24.40
2018-07-10T20:39:07.579Z,27.60
2018-07-10T20:41:44.492Z,19.83
2018-07-10T20:44:16.773Z,25.10
2018-07-10T20:46:54.753Z,22.70
2018-07-10T20:49:48.037Z,21.17
2018-07-10T20:52:26.142Z,18.90
2018-07-10T20:54:56.377Z,14.43
2018-07-10T20:57:36.286Z,13.53
2018-07-10T21:00:09.112Z,16.43
2018-07-10T21:02:46.727Z,19.17
2018-07-10T21:05:16.280Z,17.27
2018-07-10T21:08:10.430Z,16.57
2018-07-10T21:10:45.190Z,19.70
2018-07-10T21:13:17.424Z,14.87
2018-07-10T21:16:03.894Z,11.97
2018-07-10T21:18:40.638Z,11.87
2018-07-10T21:21:23.496Z,10.13
2018-07-10T21:23:57.077Z,13.73
2018-07-10T21:27:33.732Z,13.37
2018-07-10T21:30:11.777Z,15.27
2018-07-10T21:32:52.920Z,11.10
2018-07-10T21:35:23.045Z,10.77
2018-07-10T21:40:01.772Z,8.13
2018-07-10T21:42:39.769Z,10.97
2018-07-10T21:45:21.081Z,10.77
2018-07-10T21:47:57.829Z,7.37
2018-07-10T21:50:34.664Z,12.10
2018-07-10T21:53:03.990Z,6.60
2018-07-10T21:55:32.814Z,10.30
2018-07-10T21:58:01.968Z,9.40
2018-07-10T22:00:42.026Z,8.07
2018-07-10T22:03:10.645Z,5.87
2018-07-10T22:05:39.233Z,11.40
2018-07-10T22:08:07.805Z,10.77
2018-07-10T22:10:36.353Z,8.07
2018-07-10T22:13:04.865Z,8.50
2018-07-10T22:15:33.423Z,10.53
2018-07-10T22:18:02.993Z,9.23
2018-07-10T22:20:31.517Z,7.43
2018-07-10T22:23:00.550Z,7.73
2018-07-10T22:25:29.830Z,10.70
2018-07-10T22:27:58.356Z,6.30
2018-07-10T22:30:32.294Z,8.80
2018-07-10T22:33:03.077Z,8.30
2018-07-10T22:35:31.597Z,9.00
2018-07-10T22:38:00.484Z,9.60
2018-07-10T22:40:28.996Z,10.57
2018-07-10T22:42:57.536Z,10.27
2018-07-10T22:45:27.501Z,10.47
2018-07-10T22:47:55.648Z,9.97
2018-07-10T22:50:25.069Z,7.10
2018-07-10T22:52:56.694Z,7.07
2018-07-10T22:55:26.502Z,8.80
2018-07-10T22:58:09.757Z,11.57
2018-07-10T23:00:39.529Z,7.27
2018-07-10T23:03:15.659Z,8.07
2018-07-10T23:05:44.929Z,7.00
2018-07-10T23:08:13.432Z,13.97
2018-07-10T23:10:41.980Z,12.77
2018-07-10T23:13:10.837Z,9.90
2018-07-10T23:15:39.392Z,9.20
2018-07-10T23:18:07.884Z,10.47
2018-07-10T23:20:36.433Z,10.17
2018-07-10T23:23:05.769Z,5.87
2018-07-10T23:25:34.357Z,15.97
2018-07-10T23:28:04.784Z,8.00
2018-07-10T23:30:37.068Z,7.30
2018-07-10T23:33:10.760Z,12.37
2018-07-10T23:35:41.009Z,8.47
2018-07-10T23:38:28.320Z,9.80
2018-07-10T23:40:59.819Z,10.30
2018-07-10T23:43:34.312Z,8.37
2018-07-10T23:46:03.706Z,8.33
2018-07-10T23:48:33.628Z,11.70
2018-07-10T23:51:02.212Z,10.27
2018-07-10T23:53:46.936Z,10.97
2018-07-10T23:56:15.792Z,8.73
2018-07-10T23:58:45.432Z,9.30
